KAMW/AMW METAR and TAF weather

Enter ICAO airport designator
Station Type Date Time Source
KAMW METAR 2020/01/21 17:53 UTC NOAA

KAMW 211753Z AUTO 17010KT 8SM FEW007 M12/M14 A3044 RMK AO2 SLP331 T11171139 11117 21250 55018


Station Type Date Time Source
KAMW Decoded METAR 2020/01/21 17:53 UTC NOAA

AMES MUNICIPAL AIRPORT, IA, United States (KAMW) 41-59N 93-37W 279M
Jan 21, 2020 - 12:53 PM EST / 2020.01.21 1753 UTC
Wind: from the S (170 degrees) at 12 MPH (10 KT):0
Visibility: 8 mile(s):0
Sky conditions: mostly clear
Temperature: 10.9 F (-11.7 C)
Windchill: -4 F (-20 C):1
Dew Point: 7.0 F (-13.9 C)
Relative Humidity: 83%
Pressure (altimeter): 30.44 in. Hg (1030 hPa)
Pressure tendency: 0.05 inches (1.8 hPa) lower than three hours ago
ob: KAMW 211753Z AUTO 17010KT 8SM FEW007 M12/M14 A3044 RMK AO2 SLP331 T11171139 11117 21250 55018
cycle: 18

Station Type Date Time Source
KAMW TAF UTC NOAA

Error!

Example: see airport list